Impacts METAR Board
IDs:

KCLL - College Station/East, TX, US

Updated at: 0200 UTC 01 Nov 2020
Potential Impact None Slight Moderate High
Time 31/14Z 31/15Z 31/16Z 31/17Z 31/18Z 31/19Z 31/20Z 31/21Z 31/22Z 31/23Z 01/00Z 01/01Z 01/02Z
Temp50 56 61 66 69 71 74 75 74 72 67 63 62
Dewpt44 47 48 46 43 44 45 43 44 44 45 46 46
Altim30.24 30.25 30.25 30.24 30.21 30.17 30.14 30.11 30.10 30.10 30.11 30.13 30.15
VIS10 10 10 10 10 10 10 10 10 10 10 10 10
CIG-- -- -- -- -- -- -- -- -- -- -- -- --
CoverCLRCLRCLRCLRCLRCLRCLRCLRCLRCLRCLRCLRCLR
FltCatVFRVFRVFRVFRVFRVFRVFRVFRVFRVFRVFRVFRVFR
WX--------------------------
WDir1201502001802200170150140160140130140
WSpd3 5 7 8 6 4 8 6 5 6 3 3 3
WGst-- -- -- -- -- -- -- -- -- -- -- -- --
Raw hourly METARs
KCLL 311353Z 12003KT 10SM CLR 10/07 A3024 RMK AO2 SLP239 T01000067
KCLL 311453Z 15005KT 10SM CLR 13/08 A3025 RMK AO2 SLP243 T01330083 53010
KCLL 311553Z 20007KT 10SM CLR 16/09 A3025 RMK AO2 SLP242 T01610089
KCLL 311653Z 18008KT 10SM CLR 19/08 A3024 RMK AO2 SLP238 T01890078
KCLL 311753Z 22006KT 10SM CLR 21/06 A3021 RMK AO2 SLP228 T02060061 10206 20067 58014
KCLL 311853Z VRB04KT 10SM CLR 22/07 A3017 RMK AO2 SLP214 T02170067
KCLL 311953Z 17008KT 10SM CLR 23/07 A3014 RMK AO2 SLP202 T02330072
KCLL 312053Z 15006KT 10SM CLR 24/06 A3011 RMK AO2 SLP194 T02390061 56033
KCLL 312153Z 14005KT 10SM CLR 23/07 A3010 RMK AO2 SLP191 T02330067
KCLL 312253Z 16006KT 10SM CLR 22/07 A3010 RMK AO2 SLP191 T02220067
KCLL 312353Z 14003KT 10SM CLR 19/07 A3011 RMK AO2 SLP194 T01940072 10239 20194 55001
KCLL 010053Z 13003KT 10SM CLR 17/08 A3013 RMK AO2 SLP202 T01720078
KCLL 010153Z 14003KT 10SM CLR 17/08 A3015 RMK AO2 SLP209 T01670078